»·PEaware :: AAL427 KBOI-KMFR

AAL427 :: KBOI-KMFR

FLIGHT INFORMATION

Flight Status: Arrived
Operator:
American Airlines
More flights by this operator :: More flights under this callsign
Pilot: Chris S. (2433)
Aircraft: AIRBUS A320
(A320)
More flights by this aircraft type
Origin: KBOI Boise Air Terminal/Gowen
United States
Destination: KMFR Rogue Valley Intl-Medford
United States
More flights between these airports :: More routes between these airports
Route: +BOI3 SAILL BUEEL ACLOB
File this flight plan on PilotEdge
Remarks:
Altitude:
(Current/Filed)
30,000ft
Speed:
(Current/Filed)
450kts
Departed: 24-Feb-18 12:26 PM
Arrived: 24-Feb-18 01:34 PM
Distance/Time
Traveled:
301nm/1:08
Distance/Time
To Go:
Arrived

Flight Plot

Page will automatically refresh every two minutes.

Flight plan parsing failed; only flown route is shown


Map Options




Map Legend


Flown Route
Filed Route
Departure Airport
Arrival Airport
Navaid (VOR, NDB)
Fix

Horizontal Profiles

Position Reports

Time Latitude Longitude Heading Altitude Ground
Speed
24-Feb-18 11:52 43.566966 -116.219790 33 2853ft 0kts
24-Feb-18 11:53 43.566966 -116.219790 33 2853ft 0kts
24-Feb-18 11:54 43.566966 -116.219790 33 2853ft 0kts
24-Feb-18 11:55 43.566966 -116.219790 33 2853ft 0kts
24-Feb-18 11:56 43.566966 -116.219790 33 2853ft 0kts
24-Feb-18 11:57 43.566966 -116.219790 33 2853ft 0kts
24-Feb-18 11:58 43.566966 -116.219790 33 2853ft 0kts
24-Feb-18 11:59 43.566966 -116.219790 33 2853ft 0kts
24-Feb-18 12:00 43.566966 -116.219790 33 2853ft 0kts
24-Feb-18 12:01 43.566966 -116.219790 33 2853ft 0kts
24-Feb-18 12:02 43.566966 -116.219790 33 2853ft 0kts
24-Feb-18 12:03 43.566966 -116.219790 33 2853ft 0kts
24-Feb-18 12:04 43.566966 -116.219790 33 2853ft 0kts
24-Feb-18 12:05 43.566966 -116.219790 33 2853ft 0kts
24-Feb-18 12:06 43.566966 -116.219790 33 2853ft 0kts
24-Feb-18 12:07 43.566966 -116.219790 33 2853ft 0kts
24-Feb-18 12:08 43.566966 -116.219790 33 2853ft 0kts
24-Feb-18 12:09 43.566966 -116.219790 33 2853ft 0kts
24-Feb-18 12:10 43.566966 -116.219790 33 2853ft 0kts
24-Feb-18 12:11 43.566966 -116.219790 33 2853ft 0kts
24-Feb-18 12:12 43.566966 -116.219790 33 2853ft 0kts
24-Feb-18 12:13 43.566966 -116.219790 33 2853ft 0kts
24-Feb-18 12:14 43.566966 -116.219790 33 2853ft 0kts
24-Feb-18 12:15 43.566966 -116.219790 33 2853ft 0kts
24-Feb-18 12:16 43.566966 -116.219790 33 2853ft 0kts
24-Feb-18 12:17 43.566966 -116.219790 33 2853ft 0kts
24-Feb-18 12:18 43.566966 -116.219790 33 2853ft 0kts
24-Feb-18 12:19 43.566966 -116.219790 33 2853ft 0kts
24-Feb-18 12:20 43.566966 -116.219790 33 2853ft 0kts
24-Feb-18 12:21 43.566966 -116.219790 33 2853ft 0kts
24-Feb-18 12:22 43.566966 -116.219790 33 2853ft 0kts
24-Feb-18 12:23 43.566808 -116.219933 33 2853ft 0kts
24-Feb-18 12:24 43.566381 -116.219883 311 2854ft 2kts
24-Feb-18 12:25 43.566314 -116.219737 294 2854ft 0kts
24-Feb-18 12:26 43.566314 -116.219737 294 2854ft 0kts
24-Feb-18 12:27 43.566314 -116.219737 294 2854ft 0kts
24-Feb-18 12:28 43.566246 -116.221282 253 2854ft 7kts
24-Feb-18 12:29 43.567514 -116.225355 296 2849ft 15kts
24-Feb-18 12:30 43.569889 -116.232290 295 2838ft 24kts
24-Feb-18 12:31 43.570898 -116.235512 264 2831ft 7kts
24-Feb-18 12:32 43.570063 -116.236129 165 2832ft 7kts
24-Feb-18 12:33 43.561478 -116.210924 113 3075ft 164kts
24-Feb-18 12:34 43.540186 -116.151899 122 5638ft 198kts
24-Feb-18 12:35 43.498758 -116.092254 184 7550ft 253kts
24-Feb-18 12:36 43.428503 -116.110740 194 10491ft 273kts
24-Feb-18 12:37 43.344066 -116.130453 194 11708ft 343kts
24-Feb-18 12:38 43.282233 -116.212358 268 13874ft 337kts
24-Feb-18 12:39 43.326114 -116.327232 302 16036ft 354kts
24-Feb-18 12:40 43.383545 -116.439596 302 18014ft 364kts
24-Feb-18 12:41 43.442616 -116.554060 303 19779ft 373kts
24-Feb-18 12:42 43.502806 -116.670934 302 21384ft 381kts
24-Feb-18 12:43 43.564472 -116.791141 303 22870ft 390kts
24-Feb-18 12:44 43.627545 -116.914561 303 24241ft 397kts
24-Feb-18 12:45 43.690891 -117.039100 304 25621ft 400kts
24-Feb-18 12:46 43.745392 -117.172984 294 26796ft 406kts
24-Feb-18 12:47 43.790720 -117.317137 294 27781ft 412kts
24-Feb-18 12:48 43.836604 -117.463788 295 28799ft 415kts
24-Feb-18 12:49 43.860022 -117.618402 269 29956ft 423kts
24-Feb-18 12:50 43.821260 -117.773887 250 30087ft 434kts
24-Feb-18 12:51 43.771895 -117.925906 251 30072ft 435kts
24-Feb-18 12:52 43.722226 -118.078584 251 30042ft 435kts
24-Feb-18 12:53 43.672369 -118.231029 251 30041ft 435kts
24-Feb-18 12:54 43.622524 -118.382582 251 30042ft 435kts
24-Feb-18 12:55 43.572245 -118.534588 251 30043ft 435kts
24-Feb-18 12:56 43.522870 -118.683032 250 30042ft 436kts
24-Feb-18 12:57 43.472137 -118.834713 250 30047ft 436kts
24-Feb-18 12:58 43.421144 -118.986296 252 30053ft 436kts
24-Feb-18 12:59 43.370056 -119.137329 252 30041ft 436kts
24-Feb-18 13:00 43.318895 -119.287744 252 30036ft 436kts
24-Feb-18 13:01 43.267254 -119.438722 252 30041ft 436kts
24-Feb-18 13:02 43.215629 -119.588826 252 30039ft 436kts
24-Feb-18 13:03 43.164130 -119.737758 252 30038ft 437kts
24-Feb-18 13:04 43.111912 -119.887938 252 30103ft 438kts
24-Feb-18 13:05 43.059469 -120.037945 252 30162ft 438kts
24-Feb-18 13:06 43.006737 -120.187938 252 30165ft 437kts
24-Feb-18 13:07 42.953907 -120.337525 252 30146ft 445kts
24-Feb-18 13:08 42.900130 -120.488786 253 30148ft 442kts
24-Feb-18 13:09 42.846832 -120.637938 253 30147ft 440kts
24-Feb-18 13:10 42.793527 -120.786388 252 30146ft 442kts
24-Feb-18 13:11 42.739531 -120.935891 252 30147ft 440kts
24-Feb-18 13:12 42.685241 -121.085408 253 30054ft 437kts
24-Feb-18 13:13 42.618957 -121.223547 231 27975ft 453kts
24-Feb-18 13:14 42.500685 -121.285177 195 26403ft 475kts
24-Feb-18 13:15 42.372769 -121.304757 195 24569ft 457kts
24-Feb-18 13:16 42.248181 -121.323391 195 23901ft 438kts
24-Feb-18 13:17 42.131642 -121.345079 214 22128ft 399kts
24-Feb-18 13:18 42.091251 -121.441912 289 20380ft 270kts
24-Feb-18 13:19 42.108108 -121.537664 287 18811ft 261kts
24-Feb-18 13:20 42.124549 -121.630498 286 16339ft 251kts
24-Feb-18 13:21 42.140265 -121.718714 285 15256ft 237kts
24-Feb-18 13:22 42.155528 -121.804381 285 13956ft 233kts
24-Feb-18 13:23 42.170654 -121.889565 285 13453ft 233kts
24-Feb-18 13:24 42.185587 -121.974094 284 12937ft 232kts
24-Feb-18 13:25 42.200419 -122.058442 284 12430ft 230kts
24-Feb-18 13:26 42.215092 -122.142262 284 11908ft 229kts
24-Feb-18 13:27 42.229684 -122.226033 284 11263ft 228kts
24-Feb-18 13:28 42.229307 -122.307556 248 10325ft 218kts
24-Feb-18 13:29 42.199843 -122.374105 247 9972ft 208kts
24-Feb-18 13:30 42.170396 -122.440777 247 9049ft 207kts
24-Feb-18 13:31 42.147364 -122.510872 263 8036ft 201kts
24-Feb-18 13:32 42.149820 -122.584176 288 7037ft 196kts
24-Feb-18 13:33 42.176533 -122.647967 310 5950ft 202kts
24-Feb-18 13:34 42.211608 -122.701041 310 5244ft 179kts
24-Feb-18 13:35 42.240301 -122.755631 301 4629ft 178kts
24-Feb-18 13:36 42.263329 -122.799810 313 4604ft 132kts
24-Feb-18 13:37 42.292598 -122.829165 331 3622ft 127kts
24-Feb-18 13:38 42.326529 -122.847935 334 2218ft 132kts
24-Feb-18 13:39 42.360289 -122.865620 336 1453ft 128kts
24-Feb-18 13:40 42.383707 -122.877868 338 1306ft 43kts
24-Feb-18 13:41 42.385682 -122.880277 216 1301ft 0kts
24-Feb-18 13:42 42.385485 -122.880366 183 1301ft 6kts
24-Feb-18 13:43 42.382826 -122.879034 158 1306ft 10kts
24-Feb-18 13:44 42.379320 -122.877197 158 1310ft 17kts
24-Feb-18 13:45 42.374602 -122.874687 158 1316ft 18kts
24-Feb-18 13:46 42.369527 -122.872012 158 1322ft 19kts
24-Feb-18 13:47 42.368248 -122.872991 248 1322ft 0kts
24-Feb-18 13:48 42.368248 -122.872991 248 1322ft 0kts

Navigation Log

Ident Type
Flight plan parsing failed, navigation log unavailable